Time;durP1;ratioP1;P1;durP2;ratioP2;P2;SDS_P1;SDS_P2;PMS_P1;PMS_P2;Temp;Humidity;BMP_temperature;BMP_pressure;BME280_temperature;BME280_humidity;BME280_pressure;Samples;Min_cycle;Max_cycle;Signal;HPM_P1;HPM_P2
2023/08/07 00:00:37;;;;;;;1.90;1.38;;;15.60;99.90;;;;;;5058341;28;20049;-69
2023/08/07 00:03:02;;;;;;;2.35;0.90;;;15.60;99.90;;;;;;5055815;28;20503;-68
2023/08/07 00:05:30;;;;;;;3.15;1.25;;;15.60;99.90;;;;;;5049899;28;20132;-69
2023/08/07 00:07:56;;;;;;;5.00;1.23;;;15.60;99.90;;;;;;5063989;28;20080;-69
2023/08/07 00:10:22;;;;;;;1.90;1.10;;;15.60;99.90;;;;;;5055179;28;20080;-68
2023/08/07 00:12:48;;;;;;;2.38;1.13;;;15.60;99.90;;;;;;5063304;28;20080;-68
2023/08/07 00:15:14;;;;;;;1.67;1.20;;;15.60;99.90;;;;;;5064792;28;20048;-68
2023/08/07 00:17:40;;;;;;;1.20;1.10;;;15.60;99.90;;;;;;5066390;28;20040;-68
2023/08/07 00:20:07;;;;;;;3.13;1.42;;;15.60;99.90;;;;;;5052117;28;20045;-68
2023/08/07 00:22:33;;;;;;;3.53;1.02;;;15.60;99.90;;;;;;5064826;28;20083;-68
2023/08/07 00:24:59;;;;;;;2.95;1.27;;;15.50;99.90;;;;;;5051258;28;20094;-68
2023/08/07 00:27:25;;;;;;;2.38;1.13;;;15.50;99.90;;;;;;5065936;28;20052;-69
2023/08/07 00:29:50;;;;;;;1.83;0.90;;;15.60;99.90;;;;;;5065537;28;20227;-68
2023/08/07 00:32:16;;;;;;;2.40;1.02;;;15.60;99.90;;;;;;5064650;28;20044;-68
2023/08/07 00:34:42;;;;;;;2.10;1.10;;;15.60;99.90;;;;;;5065225;28;20127;-68
2023/08/07 00:37:08;;;;;;;2.55;1.10;;;15.60;99.90;;;;;;5052747;28;20040;-68
2023/08/07 00:39:33;;;;;;;2.13;1.10;;;15.60;99.90;;;;;;5066329;28;20497;-68
2023/08/07 00:41:59;;;;;;;5.40;1.30;;;15.70;99.90;;;;;;5066927;28;20044;-68
2023/08/07 00:44:25;;;;;;;2.28;0.95;;;15.60;99.90;;;;;;5065984;28;20076;-68
2023/08/07 00:46:51;;;;;;;1.98;1.67;;;15.60;99.90;;;;;;5066868;28;20411;-69
2023/08/07 00:49:18;;;;;;;4.90;1.30;;;15.70;99.90;;;;;;5064372;28;20037;-69
2023/08/07 00:51:44;;;;;;;1.10;0.95;;;15.70;99.90;;;;;;5065622;28;20136;-69
2023/08/07 00:54:13;;;;;;;4.28;1.42;;;15.60;99.90;;;;;;5064327;28;20056;-68
2023/08/07 00:56:40;;;;;;;1.33;1.00;;;15.60;99.90;;;;;;5065132;28;20098;-70
2023/08/07 00:59:05;;;;;;;2.88;1.20;;;15.50;99.90;;;;;;5065693;28;20053;-68
2023/08/07 01:01:32;;;;;;;2.53;1.30;;;15.40;99.90;;;;;;5066111;28;20514;-69
2023/08/07 01:03:57;;;;;;;3.03;1.10;;;15.30;99.90;;;;;;5067304;28;20072;-68
2023/08/07 01:06:23;;;;;;;1.95;0.82;;;15.40;99.90;;;;;;5068414;28;20138;-69
2023/08/07 01:08:50;;;;;;;1.85;0.73;;;15.30;99.90;;;;;;5068248;28;20544;-68
2023/08/07 01:11:44;;;;;;;2.53;1.00;;;15.30;99.90;;;;;;5055847;28;20102;-68
2023/08/07 01:14:36;;;;;;;1.17;0.90;;;15.30;99.90;;;;;;5068079;28;20074;-68
2023/08/07 01:17:06;;;;;;;1.95;0.70;;;15.20;99.90;;;;;;5070510;28;20566;-68
2023/08/07 01:19:33;;;;;;;;;;;15.20;99.90;;;;;;5067927;28;20053;-68
2023/08/07 01:22:13;;;;;;;21.48;1.30;;;15.10;99.90;;;;;;5070308;28;20002;-68
2023/08/07 01:24:41;;;;;;;14.98;1.42;;;15.10;99.90;;;;;;5069956;28;20366;-67
2023/08/07 01:27:19;;;;;;;5.70;1.33;;;15.00;99.90;;;;;;5069361;28;20044;-68
2023/08/07 01:29:53;;;;;;;2.47;1.23;;;15.10;99.90;;;;;;5069238;28;20063;-68
2023/08/07 01:32:41;;;;;;;1.50;1.05;;;15.10;99.90;;;;;;5069163;28;20512;-68
2023/08/07 01:35:11;;;;;;;1.88;0.93;;;15.10;99.90;;;;;;5069038;28;20138;-68
2023/08/07 01:37:40;;;;;;;3.05;1.10;;;15.10;99.90;;;;;;5078419;28;20529;-68
2023/08/07 01:40:07;;;;;;;3.73;1.20;;;15.10;99.90;;;;;;5067635;28;20131;-69
2023/08/07 01:42:33;;;;;;;2.75;1.10;;;15.10;99.90;;;;;;5070093;28;20804;-69
2023/08/07 01:45:00;;;;;;;1.75;0.80;;;15.10;99.90;;;;;;5066874;28;20098;-68
2023/08/07 01:47:26;;;;;;;2.88;1.20;;;15.10;99.90;;;;;;5069090;28;20059;-68
2023/08/07 01:49:51;;;;;;;1.17;1.00;;;15.00;99.90;;;;;;5068793;28;20495;-70
2023/08/07 01:52:17;;;;;;;5.00;1.77;;;15.10;99.90;;;;;;5068101;28;20123;-68
2023/08/07 01:54:43;;;;;;;3.70;1.52;;;15.10;99.90;;;;;;5067458;28;20087;-68
2023/08/07 01:57:08;;;;;;;1.38;1.02;;;15.10;99.90;;;;;;5067719;28;20071;-68
2023/08/07 01:59:34;;;;;;;2.50;1.25;;;15.10;99.90;;;;;;5069479;28;20044;-68
2023/08/07 02:02:00;;;;;;;1.73;1.20;;;15.10;99.90;;;;;;5050681;28;20063;-68
2023/08/07 02:04:25;;;;;;;3.50;1.23;;;15.10;99.90;;;;;;5068953;28;20403;-68
2023/08/07 02:06:51;;;;;;;3.88;1.80;;;15.10;99.90;;;;;;5068236;28;20055;-68
2023/08/07 02:09:17;;;;;;;4.70;1.50;;;15.20;99.90;;;;;;5064079;28;20220;-68
2023/08/07 02:11:44;;;;;;;3.33;1.48;;;15.20;99.90;;;;;;5058338;28;20055;-68
2023/08/07 02:14:10;;;;;;;4.30;1.45;;;15.20;99.90;;;;;;5067747;28;20072;-68
2023/08/07 02:16:36;;;;;;;5.15;1.48;;;15.30;99.90;;;;;;5066970;28;20110;-68
2023/08/07 02:19:02;;;;;;;2.92;1.40;;;15.20;99.90;;;;;;5067127;28;20040;-69
2023/08/07 02:21:27;;;;;;;3.78;1.60;;;15.30;99.90;;;;;;5069708;28;20102;-68
2023/08/07 02:23:53;;;;;;;4.93;2.15;;;15.20;99.90;;;;;;5050025;28;20076;-68
2023/08/07 02:26:19;;;;;;;1.73;1.58;;;15.30;99.90;;;;;;5064644;28;20055;-68
2023/08/07 02:28:45;;;;;;;7.07;2.03;;;15.30;99.90;;;;;;5073598;28;20504;-69
2023/08/07 02:31:10;;;;;;;5.90;1.85;;;15.30;99.90;;;;;;5067895;28;20391;-68
2023/08/07 02:33:36;;;;;;;4.72;2.13;;;15.20;99.90;;;;;;5066674;28;20056;-68
2023/08/07 02:36:02;;;;;;;2.60;1.40;;;15.30;99.90;;;;;;5068661;28;20123;-68
2023/08/07 02:38:27;;;;;;;3.08;1.45;;;15.30;99.90;;;;;;5067588;28;20449;-68
2023/08/07 02:40:53;;;;;;;4.47;2.00;;;15.30;99.90;;;;;;5066622;28;20056;-68
2023/08/07 02:43:19;;;;;;;5.78;1.65;;;15.30;99.90;;;;;;5068614;28;20048;-68
2023/08/07 02:45:45;;;;;;;4.82;1.80;;;15.30;99.90;;;;;;5067443;28;20088;-68
2023/08/07 02:48:10;;;;;;;4.53;1.40;;;15.30;99.90;;;;;;5068594;28;20114;-68
2023/08/07 02:50:36;;;;;;;7.25;1.60;;;15.30;99.90;;;;;;5067531;28;20040;-69
2023/08/07 02:53:02;;;;;;;2.90;1.58;;;15.30;99.90;;;;;;5067463;28;20045;-68
2023/08/07 02:55:28;;;;;;;4.35;1.80;;;15.30;99.90;;;;;;5066162;28;20060;-69
2023/08/07 02:57:53;;;;;;;2.08;1.45;;;15.20;99.90;;;;;;5066768;28;20063;-69
2023/08/07 03:00:19;;;;;;;1.98;1.25;;;15.20;99.90;;;;;;5062870;28;20047;-69
2023/08/07 03:02:45;;;;;;;2.47;1.10;;;15.20;99.90;;;;;;5064415;28;20147;-68
2023/08/07 03:05:11;;;;;;;2.70;1.63;;;15.20;99.90;;;;;;5064890;28;20458;-68
2023/08/07 03:07:37;;;;;;;3.42;1.30;;;15.20;99.90;;;;;;5047034;28;20495;-68
2023/08/07 03:10:04;;;;;;;4.15;1.45;;;15.20;99.90;;;;;;5052872;28;20061;-67
2023/08/07 03:12:29;;;;;;;2.80;1.20;;;15.20;99.90;;;;;;5062005;28;20123;-68
2023/08/07 03:14:55;;;;;;;5.45;1.00;;;15.10;99.90;;;;;;5067037;28;20458;-68
2023/08/07 03:17:21;;;;;;;9.13;0.77;;;15.10;99.90;;;;;;5067354;28;20560;-68
2023/08/07 03:19:47;;;;;;;13.48;1.38;;;15.10;99.90;;;;;;5065960;28;20040;-68
2023/08/07 03:22:13;;;;;;;2.90;0.65;;;15.10;99.90;;;;;;5055534;28;20084;-68
2023/08/07 03:24:40;;;;;;;12.85;0.85;;;15.10;99.90;;;;;;5064168;28;20457;-69
2023/08/07 03:27:05;;;;;;;3.85;0.93;;;15.20;99.90;;;;;;5066363;28;20048;-68
2023/08/07 03:29:31;;;;;;;0.70;0.52;;;15.30;99.90;;;;;;5066022;28;20421;-68
2023/08/07 03:31:57;;;;;;;7.32;0.98;;;15.40;99.90;;;;;;5067172;28;20045;-68
2023/08/07 03:34:22;;;;;;;3.40;0.90;;;15.40;99.90;;;;;;5066880;28;20040;-68
2023/08/07 03:36:48;;;;;;;11.30;1.33;;;15.50;99.90;;;;;;5067969;28;20467;-68
2023/08/07 03:39:14;;;;;;;3.42;0.60;;;15.50;99.90;;;;;;5067934;28;20115;-68
2023/08/07 03:41:40;;;;;;;3.20;0.65;;;15.50;99.90;;;;;;5066936;28;20087;-68
2023/08/07 03:44:06;;;;;;;4.90;0.90;;;15.50;99.90;;;;;;5067983;28;20401;-68
2023/08/07 03:46:32;;;;;;;1.80;0.68;;;15.50;99.90;;;;;;5064210;28;20561;-69
2023/08/07 03:48:58;;;;;;;3.00;0.50;;;15.50;99.90;;;;;;5068206;28;20209;-67
2023/08/07 03:51:24;;;;;;;2.45;0.60;;;15.60;99.90;;;;;;5065948;28;20083;-68
2023/08/07 03:53:49;;;;;;;3.25;0.65;;;15.60;99.90;;;;;;5067766;28;20515;-69
2023/08/07 03:56:15;;;;;;;7.13;1.80;;;15.60;99.90;;;;;;5065740;28;20167;-68
2023/08/07 03:58:41;;;;;;;2.17;0.82;;;15.60;99.90;;;;;;5066673;28;20076;-67
2023/08/07 04:01:07;;;;;;;4.30;0.90;;;15.60;99.90;;;;;;5066554;28;20048;-68
2023/08/07 04:03:32;;;;;;;3.75;0.90;;;15.60;99.90;;;;;;5065686;28;20052;-68
2023/08/07 04:06:00;;;;;;;3.63;1.00;;;15.50;99.90;;;;;;5067982;28;20083;-68
2023/08/07 04:08:26;;;;;;;3.20;0.68;;;15.60;99.90;;;;;;5064598;28;20481;-68
2023/08/07 04:11:02;;;;;;;3.95;1.20;;;15.60;99.90;;;;;;5052219;28;20048;-69
2023/08/07 04:13:29;;;;;;;4.00;1.08;;;15.60;99.90;;;;;;5066638;28;20498;-68
2023/08/07 04:15:55;;;;;;;7.85;1.35;;;15.60;99.90;;;;;;5065193;28;20117;-68
2023/08/07 04:18:21;;;;;;;6.72;1.58;;;15.80;99.90;;;;;;5067215;28;20049;-68
2023/08/07 04:20:54;;;;;;;6.60;1.52;;;15.80;99.90;;;;;;5064649;28;20097;-68
2023/08/07 04:23:20;;;;;;;5.85;1.77;;;15.90;99.90;;;;;;5065625;28;20101;-68
2023/08/07 04:25:50;;;;;;;9.10;1.65;;;15.90;99.90;;;;;;5081712;28;20097;-68
2023/08/07 04:28:18;;;;;;;9.07;1.73;;;15.90;99.90;;;;;;5053662;28;20122;-68
2023/08/07 04:30:45;;;;;;;7.03;1.50;;;16.00;99.90;;;;;;5065834;28;20049;-67
2023/08/07 04:33:11;;;;;;;9.00;1.60;;;16.00;99.90;;;;;;5066651;28;20044;-68
2023/08/07 04:35:37;;;;;;;13.40;2.30;;;16.00;99.90;;;;;;5065841;28;20086;-68
2023/08/07 04:38:03;;;;;;;10.15;2.47;;;16.10;99.90;;;;;;5066515;28;20056;-67
2023/08/07 04:40:29;;;;;;;5.00;2.05;;;16.10;99.90;;;;;;5069681;28;20143;-68
2023/08/07 04:42:55;;;;;;;13.75;1.98;;;16.10;99.90;;;;;;5070425;28;20098;-68
2023/08/07 04:45:21;;;;;;;9.63;1.92;;;16.10;99.90;;;;;;5069776;28;20093;-68
2023/08/07 04:47:46;;;;;;;18.60;3.22;;;16.10;99.90;;;;;;5039726;28;20041;-67
2023/08/07 04:50:12;;;;;;;6.60;2.13;;;16.10;99.90;;;;;;5070204;28;20721;-66
2023/08/07 04:52:38;;;;;;;6.55;1.45;;;16.00;99.90;;;;;;5069415;28;20418;-68
2023/08/07 04:55:04;;;;;;;10.88;1.67;;;16.00;99.90;;;;;;5069542;28;20533;-68
2023/08/07 04:57:30;;;;;;;6.03;1.38;;;16.00;99.90;;;;;;5070525;28;20470;-67
2023/08/07 04:59:56;;;;;;;6.40;1.58;;;16.00;99.90;;;;;;5068860;28;20044;-67
2023/08/07 05:02:22;;;;;;;9.95;1.90;;;16.10;99.90;;;;;;5071111;28;20044;-68
2023/08/07 05:04:47;;;;;;;8.13;2.33;;;16.10;99.90;;;;;;5069271;28;20056;-67
2023/08/07 05:07:13;;;;;;;14.25;2.70;;;16.20;99.90;;;;;;5069836;28;20052;-68
2023/08/07 05:09:39;;;;;;;16.10;2.75;;;16.10;99.90;;;;;;5061393;28;20487;-68
2023/08/07 05:12:06;;;;;;;15.45;2.85;;;16.10;99.90;;;;;;5063259;28;20389;-67
2023/08/07 05:14:32;;;;;;;14.98;2.55;;;16.10;99.90;;;;;;5070078;28;20056;-67
2023/08/07 05:16:59;;;;;;;2.63;1.30;;;16.10;99.90;;;;;;5067988;28;20083;-68
2023/08/07 05:19:25;;;;;;;5.30;1.50;;;16.00;99.90;;;;;;5069288;28;20101;-68
2023/08/07 05:21:51;;;;;;;12.82;2.30;;;15.80;99.90;;;;;;5067794;28;20095;-68
2023/08/07 05:24:17;;;;;;;14.07;2.35;;;15.70;99.90;;;;;;5069057;28;20075;-67
2023/08/07 05:26:43;;;;;;;13.20;2.45;;;15.50;99.90;;;;;;5069451;28;20056;-67
2023/08/07 05:29:09;;;;;;;20.02;2.58;;;15.50;99.90;;;;;;5068891;28;20048;-68
2023/08/07 05:31:36;;;;;;;12.35;2.58;;;15.50;99.90;;;;;;5068462;28;20071;-68
2023/08/07 05:34:01;;;;;;;12.45;2.25;;;15.40;99.90;;;;;;5068243;28;20402;-68
2023/08/07 05:36:28;;;;;;;13.73;2.10;;;15.40;99.90;;;;;;5051761;28;20036;-68
2023/08/07 05:38:54;;;;;;;10.13;2.30;;;15.50;99.90;;;;;;5059698;28;20065;-68
2023/08/07 05:41:19;;;;;;;12.25;2.53;;;15.50;99.90;;;;;;5068751;28;20411;-67
2023/08/07 05:43:45;;;;;;;10.45;2.95;;;15.60;99.90;;;;;;5067551;28;20040;-67
2023/08/07 05:46:11;;;;;;;8.63;2.20;;;15.60;99.90;;;;;;5068617;28;20041;-67
2023/08/07 05:48:37;;;;;;;14.77;2.45;;;15.70;99.90;;;;;;5069454;28;20059;-67
2023/08/07 05:51:03;;;;;;;8.98;2.38;;;15.70;99.90;;;;;;5067890;28;20055;-68
2023/08/07 05:53:29;;;;;;;11.80;2.22;;;15.80;99.90;;;;;;5070171;28;20100;-67
2023/08/07 05:55:57;;;;;;;10.57;2.17;;;15.90;99.90;;;;;;5083260;28;20045;-68
2023/08/07 05:58:23;;;;;;;13.43;2.35;;;16.00;99.90;;;;;;5067945;28;20106;-69
2023/08/07 06:00:49;;;;;;;12.98;2.40;;;16.10;99.90;;;;;;5066892;28;20055;-68
2023/08/07 06:03:14;;;;;;;11.48;2.22;;;16.20;99.90;;;;;;5068363;28;20460;-68
2023/08/07 06:05:40;;;;;;;6.22;2.10;;;16.20;99.90;;;;;;5068660;28;20040;-67
2023/08/07 06:08:06;;;;;;;11.95;2.45;;;16.30;99.90;;;;;;5067606;28;20079;-67
2023/08/07 06:10:32;;;;;;;12.00;2.47;;;16.40;99.90;;;;;;5055149;28;20394;-68
2023/08/07 06:12:57;;;;;;;12.15;2.45;;;16.40;99.90;;;;;;5068140;28;20414;-68
2023/08/07 06:15:23;;;;;;;9.70;2.25;;;16.40;99.90;;;;;;5067568;28;20135;-69
2023/08/07 06:17:51;;;;;;;8.73;2.25;;;16.20;99.90;;;;;;5067683;28;20117;-68
2023/08/07 06:20:16;;;;;;;7.35;1.90;;;15.90;99.90;;;;;;5068164;28;20521;-68
2023/08/07 06:22:42;;;;;;;10.02;2.35;;;15.50;99.90;;;;;;5066529;28;20044;-67
2023/08/07 06:25:08;;;;;;;7.25;2.42;;;15.30;99.90;;;;;;5085200;28;20040;-67
2023/08/07 06:27:35;;;;;;;10.93;2.15;;;15.30;99.90;;;;;;5084042;28;20032;-68
2023/08/07 06:30:01;;;;;;;8.82;2.10;;;15.20;99.90;;;;;;5066916;28;20044;-68
2023/08/07 06:32:27;;;;;;;9.10;2.13;;;15.30;99.90;;;;;;5068514;28;20086;-67
2023/08/07 06:34:53;;;;;;;7.82;2.38;;;15.30;99.90;;;;;;5066082;28;20056;-67
2023/08/07 06:37:20;;;;;;;13.43;2.42;;;15.30;99.90;;;;;;5069638;28;20053;-68
2023/08/07 06:39:46;;;;;;;14.95;2.42;;;15.30;99.90;;;;;;5066592;28;20120;-69
2023/08/07 06:42:12;;;;;;;9.20;1.83;;;15.30;99.90;;;;;;5067906;28;20510;-68
2023/08/07 06:44:38;;;;;;;14.38;3.80;;;15.50;99.90;;;;;;5067576;28;20037;-68
2023/08/07 06:47:04;;;;;;;12.27;2.28;;;15.50;99.90;;;;;;5084027;28;20452;-68
2023/08/07 06:49:31;;;;;;;13.57;2.75;;;15.60;99.90;;;;;;5067606;28;20056;-68
2023/08/07 06:51:57;;;;;;;12.18;2.08;;;15.70;99.90;;;;;;5065487;28;20558;-68
2023/08/07 06:54:23;;;;;;;9.05;2.40;;;15.70;99.90;;;;;;5067444;28;20458;-69
2023/08/07 06:56:49;;;;;;;5.55;1.45;;;15.70;99.90;;;;;;5065393;28;20052;-68
2023/08/07 06:59:15;;;;;;;12.10;3.42;;;15.40;99.90;;;;;;5067441;28;20048;-68
2023/08/07 07:01:41;;;;;;;10.40;2.05;;;15.20;99.90;;;;;;5065178;28;20075;-69
2023/08/07 07:04:06;;;;;;;5.28;1.88;;;15.00;99.90;;;;;;5084180;28;20052;-68
2023/08/07 07:06:33;;;;;;;10.55;1.45;;;14.90;99.90;;;;;;5068333;28;20070;-68
2023/08/07 07:08:59;;;;;;;6.20;1.92;;;14.80;99.90;;;;;;5063831;28;20040;-67
2023/08/07 07:11:24;;;;;;;12.90;2.35;;;14.80;99.90;;;;;;5063809;28;20070;-68
2023/08/07 07:13:51;;;;;;;10.15;2.10;;;14.80;99.90;;;;;;5064912;28;20052;-67
2023/08/07 07:16:21;;;;;;;10.45;2.22;;;14.90;99.90;;;;;;5067678;28;20040;-67
2023/08/07 07:18:51;;;;;;;12.15;2.10;;;15.00;99.90;;;;;;5064800;28;20145;-68
2023/08/07 07:21:17;;;;;;;;;;;15.10;99.90;;;;;;5067685;28;20045;-68
2023/08/07 07:23:42;;;;;;;6.85;2.03;;;15.40;99.90;;;;;;5066057;28;20069;-68
2023/08/07 07:26:08;;;;;;;5.32;1.90;;;15.50;99.90;;;;;;5066230;28;20047;-68
2023/08/07 07:28:34;;;;;;;5.93;1.58;;;15.60;99.90;;;;;;5068437;28;20398;-68
2023/08/07 07:31:00;;;;;;;7.78;1.65;;;15.70;99.90;;;;;;5064779;28;20040;-68
2023/08/07 07:33:26;;;;;;;12.88;2.38;;;15.80;99.90;;;;;;5067390;28;20056;-68
2023/08/07 07:35:51;;;;;;;7.47;2.70;;;16.10;99.90;;;;;;5066176;28;20465;-68
2023/08/07 07:38:17;;;;;;;7.03;1.85;;;16.30;99.90;;;;;;5067498;28;20036;-68
2023/08/07 07:40:43;;;;;;;5.18;1.88;;;16.20;99.90;;;;;;5047826;28;20051;-68
2023/08/07 07:43:09;;;;;;;7.40;1.75;;;16.20;99.90;;;;;;5067180;28;20045;-68
2023/08/07 07:45:36;;;;;;;7.00;2.13;;;16.30;99.90;;;;;;5065129;28;20509;-70
2023/08/07 07:48:02;;;;;;;4.95;1.73;;;16.40;99.90;;;;;;5046519;28;20036;-69
2023/08/07 07:50:28;;;;;;;7.13;1.83;;;16.40;99.90;;;;;;5065235;28;20139;-68
2023/08/07 07:52:54;;;;;;;12.50;1.52;;;16.50;99.90;;;;;;5063026;28;20390;-68
2023/08/07 07:55:20;;;;;;;12.02;2.45;;;16.80;94.60;;;;;;5028559;28;20057;-68
2023/08/07 07:57:46;;;;;;;8.05;2.03;;;16.90;93.80;;;;;;5062973;28;20118;-68
2023/08/07 08:00:13;;;;;;;11.88;1.92;;;17.10;95.10;;;;;;5046658;28;20128;-67
2023/08/07 08:02:40;;;;;;;6.45;1.90;;;17.10;98.00;;;;;;5067211;28;20117;-68
2023/08/07 08:05:07;;;;;;;9.88;1.90;;;17.10;90.50;;;;;;5051018;28;20048;-67
2023/08/07 08:07:34;;;;;;;7.75;2.08;;;16.90;90.90;;;;;;5065258;28;20054;-68
2023/08/07 08:10:00;;;;;;;4.53;1.77;;;16.70;92.00;;;;;;5037609;28;20059;-68
2023/08/07 08:12:26;;;;;;;6.57;2.03;;;16.60;92.20;;;;;;5065395;28;20033;-68
2023/08/07 08:14:52;;;;;;;10.88;1.80;;;16.60;90.70;;;;;;5063648;28;20066;-67
2023/08/07 08:17:18;;;;;;;7.75;1.90;;;16.60;96.10;;;;;;5064552;28;20051;-67
2023/08/07 08:19:43;;;;;;;3.53;1.65;;;16.60;92.40;;;;;;5052637;28;20064;-67
2023/08/07 08:22:09;;;;;;;8.00;1.60;;;16.50;93.40;;;;;;5064569;28;20285;-68
2023/08/07 08:24:35;;;;;;;8.32;1.98;;;16.60;94.20;;;;;;5069556;28;20065;-67
2023/08/07 08:27:01;;;;;;;8.32;2.10;;;16.70;92.50;;;;;;5066895;28;20041;-68
2023/08/07 08:29:28;;;;;;;8.65;2.10;;;16.60;94.80;;;;;;5073872;28;20093;-68
2023/08/07 08:31:55;;;;;;;7.97;2.22;;;16.50;97.60;;;;;;5049660;28;20036;-68
2023/08/07 08:34:21;;;;;;;8.98;2.13;;;16.30;99.90;;;;;;5051797;28;20067;-67
2023/08/07 08:36:47;;;;;;;14.40;2.65;;;16.10;99.90;;;;;;5047684;28;20506;-66
2023/08/07 08:39:13;;;;;;;8.82;2.47;;;15.90;99.90;;;;;;5065223;28;20443;-68
2023/08/07 08:41:42;;;;;;;8.10;2.08;;;15.70;99.90;;;;;;5076947;28;20036;-67
2023/08/07 08:44:10;;;;;;;9.85;2.58;;;15.60;99.90;;;;;;5074895;28;20048;-67
2023/08/07 08:46:37;;;;;;;10.57;2.70;;;15.60;99.90;;;;;;5068502;28;20044;-67
2023/08/07 08:49:05;;;;;;;8.80;2.10;;;15.70;99.90;;;;;;5051910;28;20491;-67
2023/08/07 08:51:32;;;;;;;7.35;2.40;;;15.80;99.90;;;;;;5060728;28;20090;-68
2023/08/07 08:53:59;;;;;;;6.10;2.17;;;15.90;99.90;;;;;;5052122;28;20044;-69
2023/08/07 08:56:25;;;;;;;6.93;2.05;;;15.70;99.90;;;;;;5059323;28;20060;-69
2023/08/07 08:58:51;;;;;;;3.13;1.45;;;15.20;99.90;;;;;;5056041;28;20040;-69
2023/08/07 09:01:18;;;;;;;7.38;2.17;;;14.90;99.90;;;;;;5067278;28;20127;-68
2023/08/07 09:03:47;;;;;;;9.45;2.42;;;14.80;99.90;;;;;;5065347;28;20371;-69
2023/08/07 09:06:13;;;;;;;6.72;2.05;;;14.80;99.90;;;;;;5062687;28;20044;-69
2023/08/07 09:08:43;;;;;;;15.55;3.33;;;15.00;99.50;;;;;;5066972;28;20052;-68
2023/08/07 09:11:11;;;;;;;5.88;1.95;;;15.20;99.90;;;;;;5053964;28;20536;-68
2023/08/07 09:13:38;;;;;;;6.40;2.00;;;15.50;99.90;;;;;;5065424;28;20049;-69
2023/08/07 09:16:07;;;;;;;8.55;2.45;;;15.70;99.90;;;;;;5063944;28;20437;-69
2023/08/07 09:18:33;;;;;;;6.00;2.03;;;15.70;99.90;;;;;;5064730;28;20123;-68
2023/08/07 09:21:00;;;;;;;5.78;1.80;;;15.60;99.90;;;;;;5060625;28;20178;-69
2023/08/07 09:23:25;;;;;;;4.93;1.65;;;15.40;99.90;;;;;;5063986;28;20044;-68
2023/08/07 09:26:02;;;;;;;7.78;2.40;;;15.30;99.90;;;;;;5067057;28;20044;-68
2023/08/07 09:28:29;;;;;;;9.30;2.70;;;15.30;99.90;;;;;;5067241;28;20052;-69
2023/08/07 09:30:55;;;;;;;10.55;2.60;;;15.40;99.90;;;;;;5069266;28;20406;-69
2023/08/07 09:33:28;;;;;;;15.95;2.47;;;15.30;99.90;;;;;;5048432;28;20052;-68
2023/08/07 09:36:01;;;;;;;11.13;2.33;;;15.30;99.90;;;;;;5070049;28;20168;-68
2023/08/07 09:38:34;;;;;;;6.00;2.10;;;15.30;99.90;;;;;;5069952;28;20040;-69
2023/08/07 09:41:04;;;;;;;9.95;3.08;;;15.40;99.90;;;;;;5068172;28;20397;-68
2023/08/07 09:43:34;;;;;;;10.90;2.30;;;15.40;99.90;;;;;;5070560;28;20547;-68
2023/08/07 09:46:07;;;;;;;7.53;2.53;;;15.50;99.90;;;;;;5068882;28;20082;-68
2023/08/07 09:48:42;;;;;;;9.70;2.60;;;15.60;99.90;;;;;;5069611;28;20044;-68
2023/08/07 09:51:08;;;;;;;6.35;2.13;;;15.70;99.90;;;;;;5070358;28;20048;-68
2023/08/07 09:53:34;;;;;;;6.50;1.98;;;15.80;99.90;;;;;;5048081;28;20040;-68
2023/08/07 09:56:01;;;;;;;6.30;2.30;;;16.10;98.80;;;;;;5050953;28;20060;-67
2023/08/07 09:58:28;;;;;;;14.07;2.40;;;16.30;96.90;;;;;;5072229;28;20045;-68
2023/08/07 10:00:55;;;;;;;3.53;1.40;;;16.50;88.70;;;;;;5074348;28;20051;-69
2023/08/07 10:03:22;;;;;;;8.23;2.10;;;16.70;79.50;;;;;;5075297;28;20053;-68
2023/08/07 10:05:48;;;;;;;10.75;2.00;;;16.60;59.10;;;;;;5058977;28;20486;-68
2023/08/07 10:08:14;;;;;;;9.07;2.10;;;16.60;65.10;;;;;;5081491;28;20047;-69
2023/08/07 10:10:40;;;;;;;5.40;2.03;;;16.60;81.80;;;;;;5065169;28;20521;-68
2023/08/07 10:13:06;;;;;;;9.82;2.35;;;16.50;88.60;;;;;;5067009;28;20048;-67
2023/08/07 10:15:34;;;;;;;9.60;2.25;;;16.40;88.00;;;;;;5048938;28;20060;-68
2023/08/07 10:18:00;;;;;;;6.35;2.30;;;16.30;85.20;;;;;;5036336;28;20388;-68
2023/08/07 10:20:29;;;;;;;10.55;2.08;;;16.30;84.40;;;;;;5067547;28;20674;-69
2023/08/07 10:23:01;;;;;;;7.68;2.08;;;16.30;79.70;;;;;;5067436;28;20052;-68
2023/08/07 10:25:28;;;;;;;10.68;2.55;;;16.20;85.10;;;;;;5049689;28;20048;-67
2023/08/07 10:27:56;;;;;;;12.50;2.80;;;16.10;88.30;;;;;;5068018;28;20121;-69
2023/08/07 10:30:23;;;;;;;13.02;2.95;;;16.10;82.20;;;;;;5067769;28;20052;-68
2023/08/07 10:32:50;;;;;;;9.98;3.00;;;16.10;84.20;;;;;;5065257;28;20063;-68
2023/08/07 10:35:29;;;;;;;5.60;1.58;;;16.10;84.50;;;;;;5068273;28;20395;-68
2023/08/07 10:37:59;;;;;;;5.55;1.90;;;16.10;94.20;;;;;;5064281;28;20044;-68
2023/08/07 10:40:26;;;;;;;6.88;2.45;;;15.90;92.40;;;;;;5056338;28;20506;-68
2023/08/07 10:42:59;;;;;;;9.32;2.17;;;15.80;88.40;;;;;;5068737;28;20382;-68
2023/08/07 10:45:27;;;;;;;6.05;1.73;;;15.80;93.60;;;;;;5066534;28;20154;-67
2023/08/07 10:48:11;;;;;;;7.75;2.20;;;15.80;98.10;;;;;;5068512;28;20121;-68
2023/08/07 10:51:02;;;;;;;7.95;2.20;;;16.00;99.90;;;;;;5064085;28;20043;-68
2023/08/07 10:53:37;;;;;;;7.82;2.17;;;16.10;97.10;;;;;;5082540;28;20044;-68
2023/08/07 10:56:09;;;;;;;12.80;2.35;;;16.20;94.70;;;;;;5053563;28;20063;-68
2023/08/07 10:58:37;;;;;;;7.63;2.10;;;16.20;95.10;;;;;;5078259;28;20068;-68
2023/08/07 11:01:20;;;;;;;13.80;3.58;;;16.30;87.60;;;;;;5077703;28;20455;-67
2023/08/07 11:04:05;;;;;;;4.55;1.83;;;16.40;90.00;;;;;;5075524;28;20051;-68
2023/08/07 11:06:32;;;;;;;9.70;1.90;;;16.50;73.70;;;;;;5064790;28;20059;-68
2023/08/07 11:08:59;;;;;;;8.52;1.90;;;16.60;82.40;;;;;;5072523;28;20058;-68
2023/08/07 11:11:27;;;;;;;5.63;1.90;;;16.70;68.40;;;;;;5039684;28;20105;-68
2023/08/07 11:13:53;;;;;;;7.60;2.83;;;16.60;65.70;;;;;;5062667;28;20436;-68
2023/08/07 11:16:20;;;;;;;6.47;2.03;;;16.60;73.50;;;;;;5061381;28;20037;-68
2023/08/07 11:18:47;;;;;;;5.68;1.65;;;16.60;61.80;;;;;;5060718;28;20317;-68
2023/08/07 11:21:13;;;;;;;2.97;1.70;;;16.70;63.00;;;;;;5057925;28;20056;-69
2023/08/07 11:23:40;;;;;;;11.60;2.20;;;16.90;40.60;;;;;;5063666;28;20048;-68
2023/08/07 11:26:07;;;;;;;7.00;1.85;;;17.10;52.90;;;;;;5078362;28;20048;-67
2023/08/07 11:28:33;;;;;;;5.85;1.70;;;17.30;42.80;;;;;;5065650;28;20101;-69
2023/08/07 11:30:59;;;;;;;4.70;1.70;;;17.60;7.80;;;;;;5053574;28;20056;-68
2023/08/07 11:33:26;;;;;;;4.22;1.98;;;17.70;13.40;;;;;;5072241;28;20046;-69
2023/08/07 11:35:53;;;;;;;4.68;1.75;;;17.80;1.00;;;;;;5060179;28;20036;-68
2023/08/07 11:38:32;;;;;;;5.85;1.50;;;17.80;14.80;;;;;;5076565;28;20071;-68
2023/08/07 11:41:00;;;;;;;6.03;1.75;;;17.60;1.00;;;;;;5065518;28;20547;-68
2023/08/07 11:43:28;;;;;;;11.00;1.80;;;17.40;6.70;;;;;;5072113;28;20041;-68
2023/08/07 11:45:55;;;;;;;4.13;1.45;;;17.20;5.30;;;;;;5070953;28;20040;-68
2023/08/07 11:48:24;;;;;;;7.00;1.30;;;17.10;9.60;;;;;;5071234;28;20483;-69
2023/08/07 11:50:51;;;;;;;4.43;1.75;;;17.00;7.10;;;;;;5043205;28;20091;-68
2023/08/07 11:53:17;;;;;;;5.70;1.48;;;17.10;9.80;;;;;;5055902;28;20045;-68
2023/08/07 11:55:55;;;;;;;2.72;1.50;;;17.20;16.50;;;;;;5051001;28;20061;-68
2023/08/07 11:58:22;;;;;;;10.43;2.10;;;17.40;18.50;;;;;;5054748;28;20048;-68
2023/08/07 12:00:48;;;;;;;5.90;1.90;;;17.40;19.00;;;;;;5054100;28;20139;-68
2023/08/07 12:03:27;;;;;;;8.15;2.55;;;17.40;14.00;;;;;;5055585;28;20565;-67
2023/08/07 12:05:54;;;;;;;;;;;17.30;13.20;;;;;;5053014;28;20124;-67
2023/08/07 12:08:20;;;;;;;4.28;1.35;;;17.20;15.70;;;;;;5063373;28;19932;-67
2023/08/07 12:11:09;;;;;;;6.30;1.40;;;17.10;23.60;;;;;;5053080;28;20048;-67
2023/08/07 12:13:44;;;;;;;6.82;1.77;;;17.10;30.30;;;;;;5064536;28;20494;-70
2023/08/07 12:16:15;;;;;;;4.72;1.58;;;17.20;50.30;;;;;;5065795;28;20044;-68
2023/08/07 12:18:47;;;;;;;7.65;1.42;;;17.30;38.50;;;;;;5065251;28;20546;-67
2023/08/07 12:21:22;;;;;;;4.00;1.42;;;17.50;28.60;;;;;;5068080;28;20413;-67
2023/08/07 12:23:49;;;;;;;7.43;1.95;;;17.80;37.00;;;;;;5067018;28;20052;-68
2023/08/07 12:26:15;;;;;;;5.88;1.83;;;18.00;25.90;;;;;;5065013;28;20122;-68
2023/08/07 12:28:41;;;;;;;6.35;1.88;;;18.00;25.60;;;;;;5074094;28;20093;-68
2023/08/07 12:31:07;;;;;;;2.83;1.52;;;18.00;32.10;;;;;;5061442;28;20049;-68
2023/08/07 12:33:33;;;;;;;3.42;1.40;;;17.90;39.90;;;;;;5061822;28;20032;-69
2023/08/07 12:36:00;;;;;;;3.20;1.30;;;17.80;29.10;;;;;;5060155;28;20120;-69
2023/08/07 12:38:26;;;;;;;4.38;1.13;;;17.90;16.50;;;;;;5028844;28;20055;-69
2023/08/07 12:40:52;;;;;;;8.38;2.00;;;17.90;14.10;;;;;;5055244;28;20075;-69
2023/08/07 12:43:18;;;;;;;6.47;1.48;;;18.00;6.90;;;;;;5060494;28;20552;-69
2023/08/07 12:45:44;;;;;;;5.05;1.63;;;17.90;19.80;;;;;;5063356;28;20048;-69